Check out our new BloomSky Weather System.

Active alerts


No alerts


Thunder radar  blitzortung!


Rain radar more information rain snow radar


Visit our other weather sites:

Template documentation
and downloads

And another site



Weather Underground History page Text

Daily Summary for November 30, 2017 Units:  English    Metric   Both
« Previous Day
Next Day »
Daily Weekly Monthly Yearly Custom
  High: Low: Average:
Temperature: 74.1 °F 48.0 °F 59 °F
Dew Point: 51.6 °F 43.5 °F 47.5 °F
Humidity: 97 % 34 % 70 %
Wind Speed: 8.0 mph 0.0 mph 1 mph
Wind Gust: 13.0 mph - -
Wind:- - WNW
Pressure: 30.24 in 30.11 in -
Precipitation: 0.00 in    
Historical Graphs
 
 
Tabular Data for November 30, 2017
Time Temperature Dew Point Pressure Wind Wind Speed Wind Gust Humidity Rainfall Rate (Hourly)
00:02 52.5 °F 50.0 °F 30.16 in Calm     91 % 0.00 in
00:07 52.5 °F 50.0 °F 30.15 in Calm     91 % 0.00 in
00:12 52.3 °F 49.8 °F 30.15 in Calm     91 % 0.00 in
00:17 52.2 °F 49.6 °F 30.15 in Calm     91 % 0.00 in
00:22 52.3 °F 49.8 °F 30.15 in Calm     91 % 0.00 in
00:27 52.2 °F 49.6 °F 30.15 in Calm     91 % 0.00 in
00:32 52.2 °F 49.6 °F 30.15 in Calm     91 % 0.00 in
00:37 52.0 °F 49.5 °F 30.15 in Calm     91 % 0.00 in
00:42 51.8 °F 49.3 °F 30.14 in Calm     91 % 0.00 in
00:47 51.6 °F 49.5 °F 30.14 in Calm     92 % 0.00 in
00:52 51.6 °F 49.5 °F 30.14 in Calm     92 % 0.00 in
00:57 51.6 °F 49.6 °F 30.14 in Calm     93 % 0.00 in
01:07 51.6 °F 49.5 °F 30.14 in Calm     92 % 0.00 in
01:12 51.4 °F 49.3 °F 30.14 in Calm     92 % 0.00 in
01:17 51.3 °F 49.1 °F 30.14 in Calm     92 % 0.00 in
01:27 51.3 °F 49.3 °F 30.14 in Calm     93 % 0.00 in
01:37 51.1 °F 49.1 °F 30.14 in Calm     93 % 0.00 in
01:42 51.1 °F 49.1 °F 30.14 in Calm     93 % 0.00 in
01:47 50.9 °F 48.9 °F 30.14 in Calm     93 % 0.00 in
02:02 50.4 °F 48.7 °F 30.13 in Calm     94 % 0.00 in
02:07 50.2 °F 48.2 °F 30.13 in Calm     93 % 0.00 in
02:12 50.2 °F 48.6 °F 30.13 in Calm     94 % 0.00 in
02:17 50.4 °F 48.7 °F 30.13 in Calm     94 % 0.00 in
02:22 50.4 °F 48.7 °F 30.13 in Calm     94 % 0.00 in
02:27 50.2 °F 48.6 °F 30.13 in Calm     94 % 0.00 in
02:32 50.2 °F 48.6 °F 30.13 in Calm     94 % 0.00 in
02:37 50.2 °F 48.7 °F 30.13 in Calm     95 % 0.00 in
02:47 50.4 °F 48.9 °F 30.13 in Calm     95 % 0.00 in
02:52 50.4 °F 48.9 °F 30.14 in Calm     95 % 0.00 in
03:02 50.0 °F 48.4 °F 30.14 in Calm     94 % 0.00 in
03:07 49.8 °F 48.2 °F 30.14 in Calm     94 % 0.00 in
03:17 49.5 °F 48.0 °F 30.14 in Calm     95 % 0.00 in
03:22 49.6 °F 48.2 °F 30.14 in Calm     95 % 0.00 in
03:32 49.6 °F 48.2 °F 30.14 in Calm     95 % 0.00 in
03:42 49.6 °F 48.6 °F 30.14 in Calm     96 % 0.00 in
03:47 49.8 °F 48.7 °F 30.14 in Calm     96 % 0.00 in
03:52 49.6 °F 48.6 °F 30.14 in Calm     96 % 0.00 in
03:57 49.5 °F 48.0 °F 30.14 in Calm     95 % 0.00 in
04:02 49.3 °F 47.8 °F 30.14 in Calm     95 % 0.00 in
04:07 48.9 °F 47.5 °F 30.14 in Calm     95 % 0.00 in
04:12 48.9 °F 47.8 °F 30.14 in Calm     96 % 0.00 in
04:17 48.7 °F 47.7 °F 30.14 in Calm     96 % 0.00 in
04:22 48.7 °F 47.7 °F 30.14 in Calm     96 % 0.00 in
04:27 48.6 °F 47.5 °F 30.15 in Calm     96 % 0.00 in
04:32 48.7 °F 47.7 °F 30.14 in Calm     96 % 0.00 in
04:37 48.9 °F 47.8 °F 30.15 in Calm     96 % 0.00 in
04:47 48.7 °F 47.7 °F 30.15 in Calm     96 % 0.00 in
04:52 48.6 °F 47.5 °F 30.15 in Calm     96 % 0.00 in
04:57 48.4 °F 47.3 °F 30.15 in Calm     96 % 0.00 in
05:02 48.6 °F 47.7 °F 30.15 in Calm     97 % 0.00 in
05:12 48.6 °F 47.5 °F 30.15 in Calm     96 % 0.00 in
05:17 48.4 °F 47.3 °F 30.16 in Calm     96 % 0.00 in
05:22 48.0 °F 46.9 °F 30.16 in Calm     96 % 0.00 in
05:32 48.4 °F 47.5 °F 30.16 in Calm     97 % 0.00 in
05:37 48.6 °F 47.7 °F 30.16 in Calm     97 % 0.00 in
05:42 48.4 °F 47.5 °F 30.17 in Calm     97 % 0.00 in
05:47 48.4 °F 47.5 °F 30.16 in Calm     97 % 0.00 in
05:57 48.6 °F 47.7 °F 30.16 in Calm   1.0 mph 97 % 0.00 in
06:02 48.7 °F 47.8 °F 30.17 in Calm   1.0 mph 97 % 0.00 in
06:12 49.3 °F 48.2 °F 30.17 in Calm   2.0 mph 96 % 0.00 in
06:17 49.3 °F 48.2 °F 30.17 in Calm   2.0 mph 96 % 0.00 in
06:22 49.5 °F 48.4 °F 30.17 in Calm   1.0 mph 96 % 0.00 in
06:32 49.6 °F 48.2 °F 30.18 in Calm   1.0 mph 95 % 0.00 in
06:37 49.6 °F 48.2 °F 30.18 in Calm   1.0 mph 95 % 0.00 in
06:42 49.6 °F 48.0 °F 30.18 in Calm   1.0 mph 94 % 0.00 in
06:47 49.8 °F 48.2 °F 30.19 in Calm   1.0 mph 94 % 0.00 in
07:02 49.8 °F 47.8 °F 30.19 in Calm   1.0 mph 93 % 0.00 in
07:03 49.8 °F 47.8 °F 30.19 in Calm   1.0 mph 93 % 0.00 in
07:08 49.8 °F 47.8 °F 30.19 in Calm   1.0 mph 93 % 0.00 in
07:18 49.6 °F 47.5 °F 30.19 in Calm   1.0 mph 92 % 0.00 in
07:23 49.6 °F 47.5 °F 30.19 in Calm   1.0 mph 92 % 0.00 in
07:28 49.8 °F 47.7 °F 30.19 in Calm   1.0 mph 92 % 0.00 in
07:33 50.4 °F 48.2 °F 30.19 in Calm   1.0 mph 92 % 0.00 in
07:38 50.5 °F 48.0 °F 30.19 in Calm   1.0 mph 91 % 0.00 in
07:40 50.7 °F 48.2 °F 30.19 in Calm   1.0 mph 91 % 0.00 in
07:45 51.3 °F 48.4 °F 30.20 in North 1.0 mph 1.0 mph 90 % 0.00 in
07:55 52.2 °F 48.7 °F 30.20 in Calm   3.0 mph 88 % 0.00 in
08:00 52.7 °F 48.9 °F 30.20 in NNE 1.0 mph 3.0 mph 87 % 0.00 in
08:06 53.2 °F 48.9 °F 30.21 in Calm   3.0 mph 85 % 0.00 in
08:11 53.8 °F 48.7 °F 30.21 in NNW 2.0 mph 3.0 mph 83 % 0.00 in
08:16 54.3 °F 48.9 °F 30.21 in NNW 2.0 mph 3.0 mph 82 % 0.00 in
08:21 54.9 °F 49.1 °F 30.21 in Calm   3.0 mph 81 % 0.00 in
08:26 55.6 °F 49.5 °F 30.22 in NNW 1.0 mph 3.0 mph 80 % 0.00 in
08:31 56.1 °F 49.6 °F 30.22 in North 2.0 mph 3.0 mph 79 % 0.00 in
08:41 56.8 °F 49.3 °F 30.22 in NNW 1.0 mph 5.0 mph 76 % 0.00 in
08:46 57.4 °F 49.5 °F 30.22 in North 3.0 mph 5.0 mph 75 % 0.00 in
08:56 58.5 °F 49.8 °F 30.23 in NNE 3.0 mph 4.0 mph 73 % 0.00 in
09:01 58.8 °F 50.2 °F 30.23 in NNW 2.0 mph 4.0 mph 73 % 0.00 in
09:06 59.5 °F 50.9 °F 30.23 in Calm   4.0 mph 73 % 0.00 in
09:11 60.3 °F 50.9 °F 30.23 in North 4.0 mph 4.0 mph 71 % 0.00 in
09:16 61.0 °F 51.1 °F 30.23 in NW 2.0 mph 4.0 mph 70 % 0.00 in
09:17 61.2 °F 50.9 °F 30.23 in NW 1.0 mph 4.0 mph 69 % 0.00 in
09:22 61.7 °F 51.1 °F 30.24 in North 1.0 mph 4.0 mph 68 % 0.00 in
09:37 64.6 °F 51.6 °F 30.24 in ESE 2.0 mph 2.0 mph 63 % 0.00 in
09:42 65.5 °F 51.3 °F 30.23 in SE 1.0 mph 3.0 mph 60 % 0.00 in
09:47 65.8 °F 50.2 °F 30.24 in Calm   3.0 mph 57 % 0.00 in
09:52 66.0 °F 50.4 °F 30.23 in NNW 1.0 mph 3.0 mph 57 % 0.00 in
09:57 66.4 °F 51.1 °F 30.23 in Calm   5.0 mph 58 % 0.00 in
10:02 66.6 °F 50.4 °F 30.23 in NNW 2.0 mph 5.0 mph 56 % 0.00 in
10:12 66.7 °F 49.6 °F 30.23 in NW 3.0 mph 5.0 mph 54 % 0.00 in
10:17 67.3 °F 50.0 °F 30.23 in North 1.0 mph 5.0 mph 54 % 0.00 in
10:22 67.6 °F 48.4 °F 30.23 in West 3.0 mph 5.0 mph 50 % 0.00 in
10:33 67.5 °F 47.7 °F 30.22 in NW 4.0 mph 6.0 mph 49 % 0.00 in
10:38 67.6 °F 48.4 °F 30.23 in NW 4.0 mph 6.0 mph 50 % 0.00 in
10:48 68.4 °F 47.3 °F 30.22 in WNW 4.0 mph 6.0 mph 47 % 0.00 in
10:53 68.5 °F 47.5 °F 30.22 in NNW 4.0 mph 8.0 mph 47 % 0.00 in
10:58 68.7 °F 47.7 °F 30.22 in NNE 1.0 mph 8.0 mph 47 % 0.00 in
11:03 69.3 °F 48.2 °F 30.22 in NW 4.0 mph 8.0 mph 47 % 0.00 in
11:08 69.3 °F 47.7 °F 30.22 in WNW 1.0 mph 8.0 mph 46 % 0.00 in
11:13 69.4 °F 47.8 °F 30.21 in NE 1.0 mph 7.0 mph 46 % 0.00 in
11:18 69.6 °F 48.6 °F 30.21 in NW 1.0 mph 7.0 mph 47 % 0.00 in
11:23 70.2 °F 48.4 °F 30.21 in Calm   7.0 mph 46 % 0.00 in
11:28 70.5 °F 48.7 °F 30.20 in Calm   7.0 mph 46 % 0.00 in
11:33 70.9 °F 48.6 °F 30.20 in North 2.0 mph 7.0 mph 45 % 0.00 in
11:38 71.1 °F 49.8 °F 30.20 in Calm   5.0 mph 47 % 0.00 in
11:43 71.4 °F 48.9 °F 30.20 in North 1.0 mph 7.0 mph 45 % 0.00 in
11:58 72.3 °F 49.8 °F 30.19 in Calm   5.0 mph 45 % 0.00 in
12:03 72.5 °F 50.0 °F 30.18 in Calm   6.0 mph 45 % 0.00 in
12:08 72.7 °F 49.5 °F 30.18 in North 3.0 mph 6.0 mph 44 % 0.00 in
12:13 72.7 °F 50.2 °F 30.17 in NNE 1.0 mph 6.0 mph 45 % 0.00 in
12:28 72.7 °F 48.9 °F 30.17 in Calm   5.0 mph 43 % 0.00 in
12:33 72.7 °F 47.7 °F 30.17 in NW 5.0 mph 5.0 mph 41 % 0.00 in
12:44 72.3 °F 47.3 °F 30.16 in North 6.0 mph 9.0 mph 41 % 0.00 in
12:49 72.7 °F 48.2 °F 30.16 in NW 4.0 mph 9.0 mph 42 % 0.00 in
12:59 73.2 °F 48.0 °F 30.15 in NNW 4.0 mph 9.0 mph 41 % 0.00 in
13:14 73.6 °F 45.0 °F 30.15 in NNW 7.0 mph 11.0 mph 36 % 0.00 in
13:24 73.2 °F 44.6 °F 30.14 in NW 5.0 mph 10.0 mph 36 % 0.00 in
13:29 73.2 °F 45.3 °F 30.14 in NW 5.0 mph 10.0 mph 37 % 0.00 in
13:44 73.8 °F 44.4 °F 30.13 in NNW 3.0 mph 10.0 mph 35 % 0.00 in
13:49 73.9 °F 45.3 °F 30.13 in NW 4.0 mph 9.0 mph 36 % 0.00 in
13:54 74.1 °F 45.5 °F 30.13 in North 3.0 mph 9.0 mph 36 % 0.00 in
13:59 74.1 °F 46.2 °F 30.13 in NNW 2.0 mph 9.0 mph 37 % 0.00 in
14:14 73.8 °F 44.4 °F 30.12 in NNW 1.0 mph 13.0 mph 35 % 0.00 in
14:24 73.8 °F 44.4 °F 30.12 in NNW 4.0 mph 11.0 mph 35 % 0.00 in
14:34 73.6 °F 44.2 °F 30.12 in NNW 5.0 mph 11.0 mph 35 % 0.00 in
14:39 73.6 °F 44.2 °F 30.12 in NNW 6.0 mph 10.0 mph 35 % 0.00 in
14:44 73.6 °F 43.5 °F 30.12 in NNW 8.0 mph 10.0 mph 34 % 0.00 in
14:49 73.8 °F 43.7 °F 30.12 in NW 3.0 mph 9.0 mph 34 % 0.00 in
14:54 73.6 °F 44.2 °F 30.12 in NNW 7.0 mph 8.0 mph 35 % 0.00 in
14:59 73.4 °F 44.1 °F 30.12 in North 3.0 mph 12.0 mph 35 % 0.00 in
15:04 73.4 °F 44.1 °F 30.12 in North 5.0 mph 12.0 mph 35 % 0.00 in
15:09 73.8 °F 44.4 °F 30.12 in NNW 4.0 mph 12.0 mph 35 % 0.00 in
15:14 73.6 °F 44.2 °F 30.12 in NNW 6.0 mph 8.0 mph 35 % 0.00 in
15:19 73.8 °F 44.4 °F 30.11 in WNW 5.0 mph 10.0 mph 35 % 0.00 in
15:24 73.8 °F 44.4 °F 30.11 in NW 7.0 mph 10.0 mph 35 % 0.00 in
15:29 73.2 °F 43.9 °F 30.11 in NW 2.0 mph 10.0 mph 35 % 0.00 in
15:34 73.2 °F 44.6 °F 30.11 in NNW 4.0 mph 10.0 mph 36 % 0.00 in
15:39 73.2 °F 44.6 °F 30.11 in North 5.0 mph 10.0 mph 36 % 0.00 in
15:44 73.2 °F 44.6 °F 30.11 in NW 4.0 mph 10.0 mph 36 % 0.00 in
15:49 73.4 °F 44.8 °F 30.11 in North 5.0 mph 9.0 mph 36 % 0.00 in
15:54 73.2 °F 45.3 °F 30.12 in NNW 3.0 mph 9.0 mph 37 % 0.00 in
15:59 73.0 °F 45.1 °F 30.12 in NNE 4.0 mph 8.0 mph 37 % 0.00 in
16:04 72.9 °F 45.1 °F 30.11 in NW 4.0 mph 8.0 mph 37 % 0.00 in
16:09 72.7 °F 45.0 °F 30.11 in NNW 3.0 mph 8.0 mph 37 % 0.00 in
16:15 72.3 °F 44.6 °F 30.11 in NW 4.0 mph 7.0 mph 37 % 0.00 in
16:30 72.1 °F 45.1 °F 30.12 in NNW 3.0 mph 7.0 mph 38 % 0.00 in
16:40 71.4 °F 45.1 °F 30.12 in NNW 3.0 mph 5.0 mph 39 % 0.00 in
16:45 71.2 °F 45.7 °F 30.12 in WNW 1.0 mph 5.0 mph 40 % 0.00 in
16:50 71.1 °F 45.5 °F 30.12 in NW 1.0 mph 5.0 mph 40 % 0.00 in
16:55 70.9 °F 46.0 °F 30.12 in NNW 2.0 mph 6.0 mph 41 % 0.00 in
17:05 70.2 °F 46.0 °F 30.13 in NW 2.0 mph 4.0 mph 42 % 0.00 in
17:10 70.0 °F 45.9 °F 30.13 in NNW 1.0 mph 4.0 mph 42 % 0.00 in
17:15 69.6 °F 46.2 °F 30.12 in NNW 2.0 mph 4.0 mph 43 % 0.00 in
17:20 69.4 °F 46.0 °F 30.13 in NNW 1.0 mph 4.0 mph 43 % 0.00 in
17:25 69.1 °F 46.2 °F 30.13 in NW 1.0 mph 3.0 mph 44 % 0.00 in
17:30 68.7 °F 45.9 °F 30.13 in NW 1.0 mph 3.0 mph 44 % 0.00 in
17:35 68.4 °F 46.2 °F 30.13 in Calm   3.0 mph 45 % 0.00 in
17:45 67.3 °F 46.4 °F 30.13 in Calm   2.0 mph 47 % 0.00 in
17:50 66.7 °F 46.4 °F 30.13 in Calm   1.0 mph 48 % 0.00 in
17:55 66.6 °F 46.2 °F 30.13 in Calm   1.0 mph 48 % 0.00 in
18:05 66.0 °F 46.4 °F 30.13 in Calm   1.0 mph 49 % 0.00 in
18:10 65.7 °F 46.6 °F 30.13 in NW 1.0 mph 1.0 mph 50 % 0.00 in
18:11 65.7 °F 46.6 °F 30.14 in Calm   1.0 mph 50 % 0.00 in
18:16 65.5 °F 46.9 °F 30.14 in Calm   1.0 mph 51 % 0.00 in
18:21 65.1 °F 47.1 °F 30.14 in NNW 1.0 mph 1.0 mph 52 % 0.00 in
18:26 64.9 °F 46.9 °F 30.14 in Calm   1.0 mph 52 % 0.00 in
18:31 64.8 °F 46.8 °F 30.14 in Calm   1.0 mph 52 % 0.00 in
18:36 64.2 °F 46.8 °F 30.14 in Calm   1.0 mph 53 % 0.00 in
18:46 63.9 °F 46.9 °F 30.14 in Calm   2.0 mph 54 % 0.00 in
18:51 63.7 °F 47.3 °F 30.14 in Calm   2.0 mph 55 % 0.00 in
19:06 62.1 °F 47.1 °F 30.15 in Calm     58 % 0.00 in
19:11 61.5 °F 47.1 °F 30.15 in Calm     59 % 0.00 in
19:21 60.8 °F 47.3 °F 30.15 in Calm     61 % 0.00 in
19:26 60.4 °F 47.3 °F 30.16 in Calm     62 % 0.00 in
19:31 59.9 °F 47.3 °F 30.16 in Calm     63 % 0.00 in
19:41 58.5 °F 46.4 °F 30.16 in Calm     64 % 0.00 in
19:46 57.7 °F 46.4 °F 30.16 in Calm     66 % 0.00 in
19:57 57.6 °F 47.8 °F 30.17 in Calm     70 % 0.00 in
20:07 57.4 °F 47.3 °F 30.16 in Calm     69 % 0.00 in
20:12 56.8 °F 46.8 °F 30.17 in Calm     69 % 0.00 in
20:17 56.7 °F 47.3 °F 30.17 in Calm     71 % 0.00 in
20:22 56.3 °F 46.9 °F 30.17 in Calm     71 % 0.00 in
20:27 55.8 °F 46.9 °F 30.17 in Calm     72 % 0.00 in
20:37 55.6 °F 47.5 °F 30.17 in Calm     74 % 0.00 in
20:47 54.7 °F 46.9 °F 30.17 in Calm     75 % 0.00 in
20:52 54.7 °F 47.7 °F 30.17 in Calm     77 % 0.00 in
20:57 54.7 °F 47.3 °F 30.17 in Calm     76 % 0.00 in
21:02 54.3 °F 46.9 °F 30.17 in Calm     76 % 0.00 in
21:07 53.8 °F 46.4 °F 30.17 in Calm     76 % 0.00 in
21:12 53.2 °F 45.9 °F 30.17 in Calm     76 % 0.00 in
21:18 52.5 °F 45.9 °F 30.17 in Calm     78 % 0.00 in
21:24 52.2 °F 45.9 °F 30.17 in Calm     79 % 0.00 in
21:27 52.2 °F 46.2 °F 30.17 in Calm     80 % 0.00 in
21:29 52.0 °F 46.4 °F 30.17 in Calm     81 % 0.00 in
21:34 52.0 °F 46.6 °F 30.17 in Calm     82 % 0.00 in
21:35 52.0 °F 46.6 °F 30.17 in Calm     82 % 0.00 in
21:40 52.3 °F 47.7 °F 30.17 in Calm     84 % 0.00 in
21:45 52.9 °F 47.8 °F 30.17 in Calm     83 % 0.00 in
21:50 52.9 °F 47.5 °F 30.17 in Calm     82 % 0.00 in
21:55 52.3 °F 46.8 °F 30.18 in Calm     81 % 0.00 in
22:00 52.0 °F 46.4 °F 30.17 in Calm     81 % 0.00 in
22:05 51.4 °F 46.2 °F 30.18 in Calm     82 % 0.00 in
22:10 51.3 °F 46.6 °F 30.18 in Calm     84 % 0.00 in
22:15 51.3 °F 46.9 °F 30.18 in Calm     85 % 0.00 in
22:30 50.7 °F 46.4 °F 30.18 in Calm     85 % 0.00 in
22:40 50.4 °F 46.4 °F 30.18 in Calm     86 % 0.00 in
22:50 50.5 °F 47.1 °F 30.18 in Calm     88 % 0.00 in
22:55 50.9 °F 47.5 °F 30.18 in Calm     88 % 0.00 in
23:00 50.9 °F 47.1 °F 30.18 in Calm     87 % 0.00 in
23:10 50.5 °F 46.8 °F 30.18 in Calm     87 % 0.00 in
23:15 50.5 °F 46.8 °F 30.18 in Calm     87 % 0.00 in
23:20 50.2 °F 46.4 °F 30.19 in Calm     87 % 0.00 in
23:25 49.8 °F 46.0 °F 30.18 in Calm     87 % 0.00 in
23:30 49.3 °F 45.5 °F 30.18 in Calm     87 % 0.00 in
23:35 49.5 °F 46.4 °F 30.18 in Calm     89 % 0.00 in
23:40 49.6 °F 46.6 °F 30.18 in Calm     89 % 0.00 in
23:45 50.0 °F 47.1 °F 30.18 in Calm     90 % 0.00 in
23:50 50.4 °F 47.3 °F 30.18 in Calm   1.0 mph 89 % 0.00 in
23:56 50.5 °F 47.5 °F 30.18 in Calm   1.0 mph 89 % 0.00 in
Spring, Texas: Villages of Bridgestone
Compliments of Weather Underground - 2.5 mb

Script developed by  Jim McMurry - jmcmurry@mwt.net Adapted for the template by  Wim van der Kuil - Leuven-Template.eu

You find our weather info also at:

UK Metoffice

WeatherCloud

Weather Underground

Mid-South Weather Network

AWEKAS

Citizen Weather Observer Program (CWOP)

HAMweather, WeatherForYou, PWS Weather

Equipment we use:

Weather-station
Davis Vantage Vue

Weather-program
Meteohub

Weather-server
Debian 7.9 x86 (Guest)

Provider
DreamHost

Davis Vantage Vue

Meteohub

Debian 7.9 x86 (Guest)

DreamHost